createdAt,value
2024-01-24T15:35:41.921Z,96992.75
2024-01-24T15:40:50.331Z,97013.47
2024-01-24T15:45:59.203Z,96999.81
2024-01-24T15:51:26.141Z,97014.34
2024-01-24T15:56:34.315Z,97017.09
2024-01-24T16:01:55.277Z,97013.66
2024-01-24T16:07:06.545Z,97025.31
2024-01-24T16:12:18.275Z,97044.34
2024-01-24T16:17:29.037Z,97069.53
2024-01-24T16:23:03.184Z,97069.53
2024-01-24T16:28:15.538Z,97064.13
2024-01-24T16:39:06.513Z,97074.56
2024-01-24T16:49:55.351Z,97088.22
2024-01-24T17:01:25.047Z,97110.34
2024-01-24T17:06:43.081Z,97112.25
2024-01-24T18:29:21.891Z,97165.88
2024-01-24T18:34:38.243Z,97182.34
2024-01-24T18:39:46.185Z,97174.59
2024-01-24T18:44:56.555Z,97160.94
2024-01-24T18:50:04.512Z,97186.38
2024-01-24T18:55:13.876Z,97189.94
2024-01-24T19:00:25.274Z,97177.84
2024-01-24T19:05:37.580Z,97180.94
2024-01-24T19:10:47.998Z,97194.75
2024-01-24T19:15:58.312Z,97188.06
2024-01-24T19:21:06.296Z,97203.47
2024-01-24T19:26:13.935Z,97188.09
2024-01-24T19:31:25.774Z,97190.13
2024-01-24T19:36:33.637Z,97202.34
2024-01-24T19:41:41.510Z,97185.00
2024-01-24T19:46:53.181Z,97192.91
2024-01-24T19:52:01.325Z,97195.69
2024-01-24T19:57:09.116Z,97191.03
2024-01-24T20:02:19.488Z,97193.66
2024-01-24T20:07:27.355Z,97193.81
2024-01-24T20:12:35.262Z,97185.28
2024-01-24T20:17:46.874Z,97167.91
2024-01-24T20:22:55.397Z,97181.41
2024-01-24T20:28:05.263Z,97193.97
2024-01-24T20:33:15.623Z,97187.00
2024-01-24T21:04:49.497Z,97191.28
2024-01-24T21:08:21.496Z,97193.91
2024-01-24T21:20:20.764Z,97187.53
2024-01-24T21:43:32.940Z,97168.31
2024-01-24T22:01:56.042Z,97176.69
2024-01-24T22:25:49.470Z,97180.41
2024-01-24T22:37:32.251Z,97172.69
2024-01-24T22:43:23.100Z,97170.19
2024-01-24T22:54:10.287Z,97179.34
2024-01-24T23:09:49.448Z,97175.66
2024-01-24T23:12:54.794Z,97168.53
2024-01-24T23:18:02.747Z,97173.16
2024-01-24T23:23:10.534Z,97178.44
2024-01-24T23:28:21.188Z,97183.09
2024-01-24T23:33:43.398Z,97189.47
2024-01-24T23:38:54.503Z,97169.16
2024-01-24T23:48:11.398Z,97158.75
2024-01-24T23:54:49.357Z,97175.66
2024-01-24T23:56:16.379Z,97181.09
